KERV

Kerrville Municipal / Louis Schreiner Field Airport

Kerrville, Texas, USA
METAR KERV 250055Z AUTO 15006KT 10SM CLR 30/18 A3001 RMK AO2 T02960176
Observed Flight Rules
May-25 @ 00:55 UTC (25 minutes ago) Visual Flight Rules
Wind Visibility Clouds
150° at 6 knots 10 miles
  • Clear skies
Temperatures Readings
Current 30°C / 86°F
Dewpoint 18°C / 64°F
Humidity 49%
Altimeter 30.01" Hg
Pressure 1016 hPa
Elevation 510
METAR KERV 250055Z AUTO 15006KT 10SM CLR 30/18 A3001 RMK AO2 T02960176
Observed Flight Rules
May-25 @ 00:55 UTC
(25 minutes ago)
VFR
Wind Visibility
150° at 6 knots 10 miles
Clouds
  • Clear skies
Temperature Dewpoint
30°C / 86°F 18°C / 64°F
Humidity Altimeter Pressure
49% 30.01" Hg 1016 hPa